sensor_id;sensor_type;location;lat;lon;timestamp;P1;durP1;ratioP1;P2;durP2;ratioP2
70705;SDS011;59320;52.316;10.870;2023-09-08T00:00:46;8.07;;;4.25;;
70705;SDS011;59320;52.316;10.870;2023-09-08T00:03:13;4.95;;;4.00;;
70705;SDS011;59320;52.316;10.870;2023-09-08T00:05:40;4.50;;;3.50;;
70705;SDS011;59320;52.316;10.870;2023-09-08T00:08:08;5.45;;;4.15;;
70705;SDS011;59320;52.316;10.870;2023-09-08T00:10:35;6.55;;;4.30;;
70705;SDS011;59320;52.316;10.870;2023-09-08T00:13:04;5.43;;;4.15;;
70705;SDS011;59320;52.316;10.870;2023-09-08T00:15:33;5.35;;;4.50;;
70705;SDS011;59320;52.316;10.870;2023-09-08T00:18:00;6.43;;;4.30;;
70705;SDS011;59320;52.316;10.870;2023-09-08T00:20:27;5.90;;;4.40;;
70705;SDS011;59320;52.316;10.870;2023-09-08T00:22:54;6.50;;;4.05;;
70705;SDS011;59320;52.316;10.870;2023-09-08T00:25:22;5.18;;;4.05;;
70705;SDS011;59320;52.316;10.870;2023-09-08T00:27:49;4.78;;;4.00;;
70705;SDS011;59320;52.316;10.870;2023-09-08T00:30:17;8.05;;;4.07;;
70705;SDS011;59320;52.316;10.870;2023-09-08T00:32:44;5.07;;;4.18;;
70705;SDS011;59320;52.316;10.870;2023-09-08T00:35:11;4.80;;;4.00;;
70705;SDS011;59320;52.316;10.870;2023-09-08T00:37:39;6.13;;;3.88;;
70705;SDS011;59320;52.316;10.870;2023-09-08T00:40:06;4.88;;;3.90;;
70705;SDS011;59320;52.316;10.870;2023-09-08T00:42:34;6.53;;;4.20;;
70705;SDS011;59320;52.316;10.870;2023-09-08T00:45:02;5.00;;;4.07;;
70705;SDS011;59320;52.316;10.870;2023-09-08T00:47:30;4.80;;;3.90;;
70705;SDS011;59320;52.316;10.870;2023-09-08T00:49:58;5.97;;;4.50;;
70705;SDS011;59320;52.316;10.870;2023-09-08T00:52:25;4.55;;;4.10;;
70705;SDS011;59320;52.316;10.870;2023-09-08T00:54:56;4.88;;;3.90;;
70705;SDS011;59320;52.316;10.870;2023-09-08T00:57:23;6.30;;;4.55;;
70705;SDS011;59320;52.316;10.870;2023-09-08T00:59:51;5.70;;;4.55;;
70705;SDS011;59320;52.316;10.870;2023-09-08T01:02:18;6.00;;;4.13;;
70705;SDS011;59320;52.316;10.870;2023-09-08T01:04:48;5.70;;;4.30;;
70705;SDS011;59320;52.316;10.870;2023-09-08T01:07:16;5.28;;;4.20;;
70705;SDS011;59320;52.316;10.870;2023-09-08T01:09:46;5.65;;;4.43;;
70705;SDS011;59320;52.316;10.870;2023-09-08T01:12:14;7.95;;;4.72;;
70705;SDS011;59320;52.316;10.870;2023-09-08T01:14:42;6.65;;;4.53;;
70705;SDS011;59320;52.316;10.870;2023-09-08T01:17:09;6.10;;;3.97;;
70705;SDS011;59320;52.316;10.870;2023-09-08T01:19:37;5.18;;;4.35;;
70705;SDS011;59320;52.316;10.870;2023-09-08T01:22:20;7.38;;;4.38;;
70705;SDS011;59320;52.316;10.870;2023-09-08T01:27:48;8.52;;;4.47;;
70705;SDS011;59320;52.316;10.870;2023-09-08T01:30:17;7.07;;;4.82;;
70705;SDS011;59320;52.316;10.870;2023-09-08T01:32:46;5.22;;;4.45;;
70705;SDS011;59320;52.316;10.870;2023-09-08T01:35:13;6.45;;;4.38;;
70705;SDS011;59320;52.316;10.870;2023-09-08T01:37:40;5.55;;;3.88;;
70705;SDS011;59320;52.316;10.870;2023-09-08T01:40:08;7.63;;;4.38;;
70705;SDS011;59320;52.316;10.870;2023-09-08T01:42:38;7.20;;;4.22;;
70705;SDS011;59320;52.316;10.870;2023-09-08T01:45:06;6.13;;;4.43;;
70705;SDS011;59320;52.316;10.870;2023-09-08T01:47:34;5.95;;;4.45;;
70705;SDS011;59320;52.316;10.870;2023-09-08T01:50:01;7.10;;;4.55;;
70705;SDS011;59320;52.316;10.870;2023-09-08T01:52:29;5.20;;;4.55;;
70705;SDS011;59320;52.316;10.870;2023-09-08T01:54:56;5.95;;;4.75;;
70705;SDS011;59320;52.316;10.870;2023-09-08T01:57:23;7.45;;;4.32;;
70705;SDS011;59320;52.316;10.870;2023-09-08T01:59:52;5.78;;;4.40;;
70705;SDS011;59320;52.316;10.870;2023-09-08T02:02:19;6.28;;;4.63;;
70705;SDS011;59320;52.316;10.870;2023-09-08T02:04:46;6.95;;;4.20;;
70705;SDS011;59320;52.316;10.870;2023-09-08T02:07:14;4.35;;;3.92;;
70705;SDS011;59320;52.316;10.870;2023-09-08T02:09:41;6.63;;;4.40;;
70705;SDS011;59320;52.316;10.870;2023-09-08T02:12:08;7.38;;;4.95;;
70705;SDS011;59320;52.316;10.870;2023-09-08T02:14:35;6.13;;;4.70;;
70705;SDS011;59320;52.316;10.870;2023-09-08T02:17:04;5.03;;;4.50;;
70705;SDS011;59320;52.316;10.870;2023-09-08T02:19:32;5.82;;;4.50;;
70705;SDS011;59320;52.316;10.870;2023-09-08T02:21:59;6.05;;;4.50;;
70705;SDS011;59320;52.316;10.870;2023-09-08T02:24:28;4.88;;;4.22;;
70705;SDS011;59320;52.316;10.870;2023-09-08T02:26:55;5.85;;;4.47;;
70705;SDS011;59320;52.316;10.870;2023-09-08T02:29:23;5.80;;;4.47;;
70705;SDS011;59320;52.316;10.870;2023-09-08T02:31:50;5.53;;;4.05;;
70705;SDS011;59320;52.316;10.870;2023-09-08T02:34:19;7.65;;;4.55;;
70705;SDS011;59320;52.316;10.870;2023-09-08T02:36:46;5.47;;;4.50;;
70705;SDS011;59320;52.316;10.870;2023-09-08T02:39:16;7.20;;;4.90;;
70705;SDS011;59320;52.316;10.870;2023-09-08T02:41:43;6.35;;;4.50;;
70705;SDS011;59320;52.316;10.870;2023-09-08T02:44:10;6.38;;;4.60;;
70705;SDS011;59320;52.316;10.870;2023-09-08T02:46:37;5.35;;;4.68;;
70705;SDS011;59320;52.316;10.870;2023-09-08T02:49:05;6.18;;;4.60;;
70705;SDS011;59320;52.316;10.870;2023-09-08T02:51:34;8.43;;;5.03;;
70705;SDS011;59320;52.316;10.870;2023-09-08T02:54:01;5.93;;;4.50;;
70705;SDS011;59320;52.316;10.870;2023-09-08T02:56:28;5.72;;;4.70;;
70705;SDS011;59320;52.316;10.870;2023-09-08T02:58:55;6.20;;;4.82;;
70705;SDS011;59320;52.316;10.870;2023-09-08T03:01:22;5.90;;;4.95;;
70705;SDS011;59320;52.316;10.870;2023-09-08T03:03:49;6.60;;;4.90;;
70705;SDS011;59320;52.316;10.870;2023-09-08T03:06:19;6.75;;;5.03;;
70705;SDS011;59320;52.316;10.870;2023-09-08T03:08:48;7.53;;;4.38;;
70705;SDS011;59320;52.316;10.870;2023-09-08T03:11:15;5.68;;;4.65;;
70705;SDS011;59320;52.316;10.870;2023-09-08T03:13:43;5.68;;;4.95;;
70705;SDS011;59320;52.316;10.870;2023-09-08T03:16:10;5.55;;;4.55;;
70705;SDS011;59320;52.316;10.870;2023-09-08T03:18:37;5.75;;;4.60;;
70705;SDS011;59320;52.316;10.870;2023-09-08T03:21:04;6.57;;;4.93;;
70705;SDS011;59320;52.316;10.870;2023-09-08T03:23:37;9.52;;;4.63;;
70705;SDS011;59320;52.316;10.870;2023-09-08T03:26:06;6.03;;;5.05;;
70705;SDS011;59320;52.316;10.870;2023-09-08T03:28:34;5.80;;;4.57;;
70705;SDS011;59320;52.316;10.870;2023-09-08T03:31:04;9.43;;;5.05;;
70705;SDS011;59320;52.316;10.870;2023-09-08T03:33:33;5.10;;;4.45;;
70705;SDS011;59320;52.316;10.870;2023-09-08T03:36:01;5.65;;;4.93;;
70705;SDS011;59320;52.316;10.870;2023-09-08T03:38:29;6.13;;;5.00;;
70705;SDS011;59320;52.316;10.870;2023-09-08T03:40:56;6.22;;;5.10;;
70705;SDS011;59320;52.316;10.870;2023-09-08T03:43:25;6.40;;;4.57;;
70705;SDS011;59320;52.316;10.870;2023-09-08T03:45:52;7.05;;;5.57;;
70705;SDS011;59320;52.316;10.870;2023-09-08T03:48:20;5.20;;;4.60;;
70705;SDS011;59320;52.316;10.870;2023-09-08T03:50:48;7.70;;;5.07;;
70705;SDS011;59320;52.316;10.870;2023-09-08T03:53:15;6.38;;;5.00;;
70705;SDS011;59320;52.316;10.870;2023-09-08T03:55:42;6.95;;;4.75;;
70705;SDS011;59320;52.316;10.870;2023-09-08T03:58:09;6.22;;;5.00;;
70705;SDS011;59320;52.316;10.870;2023-09-08T04:00:38;8.38;;;4.88;;
70705;SDS011;59320;52.316;10.870;2023-09-08T04:03:05;6.35;;;4.70;;
70705;SDS011;59320;52.316;10.870;2023-09-08T04:05:32;7.53;;;5.10;;
70705;SDS011;59320;52.316;10.870;2023-09-08T04:07:59;9.00;;;5.13;;
70705;SDS011;59320;52.316;10.870;2023-09-08T04:10:27;7.28;;;4.65;;
70705;SDS011;59320;52.316;10.870;2023-09-08T04:12:54;8.38;;;5.10;;
70705;SDS011;59320;52.316;10.870;2023-09-08T04:15:21;6.60;;;5.32;;
70705;SDS011;59320;52.316;10.870;2023-09-08T04:17:51;6.60;;;5.43;;
70705;SDS011;59320;52.316;10.870;2023-09-08T04:20:18;9.50;;;5.70;;
70705;SDS011;59320;52.316;10.870;2023-09-08T04:22:45;7.10;;;5.18;;
70705;SDS011;59320;52.316;10.870;2023-09-08T04:25:12;7.05;;;5.32;;
70705;SDS011;59320;52.316;10.870;2023-09-08T04:27:40;6.95;;;5.20;;
70705;SDS011;59320;52.316;10.870;2023-09-08T04:30:07;6.35;;;5.22;;
70705;SDS011;59320;52.316;10.870;2023-09-08T04:32:34;6.63;;;5.25;;
70705;SDS011;59320;52.316;10.870;2023-09-08T04:35:04;6.68;;;4.90;;
70705;SDS011;59320;52.316;10.870;2023-09-08T04:37:32;7.57;;;5.60;;
70705;SDS011;59320;52.316;10.870;2023-09-08T04:39:59;7.55;;;5.05;;
70705;SDS011;59320;52.316;10.870;2023-09-08T04:42:27;7.25;;;5.65;;
70705;SDS011;59320;52.316;10.870;2023-09-08T04:44:54;9.90;;;5.18;;
70705;SDS011;59320;52.316;10.870;2023-09-08T04:47:21;8.65;;;5.25;;
70705;SDS011;59320;52.316;10.870;2023-09-08T04:49:48;8.90;;;5.38;;
70705;SDS011;59320;52.316;10.870;2023-09-08T04:52:17;8.63;;;5.30;;
70705;SDS011;59320;52.316;10.870;2023-09-08T04:54:44;6.80;;;5.75;;
70705;SDS011;59320;52.316;10.870;2023-09-08T04:57:11;8.63;;;5.55;;
70705;SDS011;59320;52.316;10.870;2023-09-08T04:59:39;6.18;;;5.00;;
70705;SDS011;59320;52.316;10.870;2023-09-08T05:02:06;8.57;;;5.57;;
70705;SDS011;59320;52.316;10.870;2023-09-08T05:04:33;8.65;;;5.15;;
70705;SDS011;59320;52.316;10.870;2023-09-08T05:07:00;6.07;;;5.10;;
70705;SDS011;59320;52.316;10.870;2023-09-08T05:09:29;7.63;;;4.95;;
70705;SDS011;59320;52.316;10.870;2023-09-08T05:11:56;8.10;;;5.50;;
70705;SDS011;59320;52.316;10.870;2023-09-08T05:14:25;8.85;;;5.07;;
70705;SDS011;59320;52.316;10.870;2023-09-08T05:16:53;9.20;;;5.38;;
70705;SDS011;59320;52.316;10.870;2023-09-08T05:19:23;5.97;;;5.05;;
70705;SDS011;59320;52.316;10.870;2023-09-08T05:21:52;7.93;;;5.38;;
70705;SDS011;59320;52.316;10.870;2023-09-08T05:24:20;8.38;;;5.22;;
70705;SDS011;59320;52.316;10.870;2023-09-08T05:26:49;9.73;;;5.30;;
70705;SDS011;59320;52.316;10.870;2023-09-08T05:29:16;7.55;;;5.13;;
70705;SDS011;59320;52.316;10.870;2023-09-08T05:31:44;7.60;;;4.65;;
70705;SDS011;59320;52.316;10.870;2023-09-08T05:34:11;6.68;;;5.35;;
70705;SDS011;59320;52.316;10.870;2023-09-08T05:36:38;9.35;;;5.53;;
70705;SDS011;59320;52.316;10.870;2023-09-08T05:39:07;6.80;;;5.20;;
70705;SDS011;59320;52.316;10.870;2023-09-08T05:41:35;8.65;;;6.05;;
70705;SDS011;59320;52.316;10.870;2023-09-08T05:44:04;11.32;;;6.03;;
70705;SDS011;59320;52.316;10.870;2023-09-08T05:46:32;8.40;;;5.40;;
70705;SDS011;59320;52.316;10.870;2023-09-08T05:48:59;8.02;;;5.60;;
70705;SDS011;59320;52.316;10.870;2023-09-08T05:51:27;6.55;;;5.45;;
70705;SDS011;59320;52.316;10.870;2023-09-08T05:53:55;7.47;;;5.70;;
70705;SDS011;59320;52.316;10.870;2023-09-08T05:56:24;6.15;;;4.90;;
70705;SDS011;59320;52.316;10.870;2023-09-08T05:58:52;8.20;;;5.20;;
70705;SDS011;59320;52.316;10.870;2023-09-08T06:01:21;6.90;;;4.95;;
70705;SDS011;59320;52.316;10.870;2023-09-08T06:03:50;7.25;;;5.47;;
70705;SDS011;59320;52.316;10.870;2023-09-08T06:06:17;9.15;;;5.53;;
70705;SDS011;59320;52.316;10.870;2023-09-08T06:08:44;7.15;;;5.50;;
70705;SDS011;59320;52.316;10.870;2023-09-08T06:11:11;6.88;;;4.85;;
70705;SDS011;59320;52.316;10.870;2023-09-08T06:13:38;6.70;;;5.38;;
70705;SDS011;59320;52.316;10.870;2023-09-08T06:16:05;8.85;;;5.63;;
70705;SDS011;59320;52.316;10.870;2023-09-08T06:18:34;9.05;;;5.72;;
70705;SDS011;59320;52.316;10.870;2023-09-08T06:21:07;7.60;;;5.15;;
70705;SDS011;59320;52.316;10.870;2023-09-08T06:23:34;7.43;;;5.63;;
70705;SDS011;59320;52.316;10.870;2023-09-08T06:26:02;6.88;;;5.57;;
70705;SDS011;59320;52.316;10.870;2023-09-08T06:28:31;7.78;;;5.38;;
70705;SDS011;59320;52.316;10.870;2023-09-08T06:30:58;6.97;;;5.43;;
70705;SDS011;59320;52.316;10.870;2023-09-08T06:33:26;8.57;;;5.88;;
70705;SDS011;59320;52.316;10.870;2023-09-08T06:35:55;6.93;;;5.10;;
70705;SDS011;59320;52.316;10.870;2023-09-08T06:38:22;7.30;;;5.72;;
70705;SDS011;59320;52.316;10.870;2023-09-08T06:40:50;7.93;;;5.65;;
70705;SDS011;59320;52.316;10.870;2023-09-08T06:43:18;6.78;;;5.55;;
70705;SDS011;59320;52.316;10.870;2023-09-08T06:45:55;9.13;;;5.22;;
70705;SDS011;59320;52.316;10.870;2023-09-08T06:48:23;7.82;;;5.50;;
70705;SDS011;59320;52.316;10.870;2023-09-08T06:50:52;8.85;;;5.20;;
70705;SDS011;59320;52.316;10.870;2023-09-08T06:53:23;8.07;;;5.40;;
70705;SDS011;59320;52.316;10.870;2023-09-08T06:55:50;7.60;;;5.60;;
70705;SDS011;59320;52.316;10.870;2023-09-08T06:58:18;5.68;;;5.07;;
70705;SDS011;59320;52.316;10.870;2023-09-08T07:00:46;9.27;;;5.45;;
70705;SDS011;59320;52.316;10.870;2023-09-08T07:03:15;7.45;;;5.10;;
70705;SDS011;59320;52.316;10.870;2023-09-08T07:05:42;6.88;;;5.50;;
70705;SDS011;59320;52.316;10.870;2023-09-08T07:08:10;7.25;;;5.38;;
70705;SDS011;59320;52.316;10.870;2023-09-08T07:10:39;6.93;;;5.22;;
70705;SDS011;59320;52.316;10.870;2023-09-08T07:13:06;6.43;;;5.22;;
70705;SDS011;59320;52.316;10.870;2023-09-08T07:15:33;7.72;;;4.95;;
70705;SDS011;59320;52.316;10.870;2023-09-08T07:18:01;8.05;;;5.10;;
70705;SDS011;59320;52.316;10.870;2023-09-08T07:20:28;6.63;;;5.00;;
70705;SDS011;59320;52.316;10.870;2023-09-08T07:22:55;7.50;;;5.45;;
70705;SDS011;59320;52.316;10.870;2023-09-08T07:25:24;8.02;;;5.40;;
70705;SDS011;59320;52.316;10.870;2023-09-08T07:27:52;8.02;;;5.15;;
70705;SDS011;59320;52.316;10.870;2023-09-08T07:30:21;7.43;;;5.28;;
70705;SDS011;59320;52.316;10.870;2023-09-08T07:32:48;10.13;;;5.53;;
70705;SDS011;59320;52.316;10.870;2023-09-08T07:35:16;5.95;;;5.07;;
70705;SDS011;59320;52.316;10.870;2023-09-08T07:37:45;6.68;;;4.72;;
70705;SDS011;59320;52.316;10.870;2023-09-08T07:40:13;7.78;;;5.30;;
70705;SDS011;59320;52.316;10.870;2023-09-08T07:42:40;5.93;;;4.90;;
70705;SDS011;59320;52.316;10.870;2023-09-08T07:45:09;7.13;;;4.68;;
70705;SDS011;59320;52.316;10.870;2023-09-08T07:47:36;4.95;;;4.30;;
70705;SDS011;59320;52.316;10.870;2023-09-08T07:50:17;6.10;;;4.40;;
70705;SDS011;59320;52.316;10.870;2023-09-08T07:52:46;5.97;;;4.72;;
70705;SDS011;59320;52.316;10.870;2023-09-08T07:55:13;5.30;;;4.45;;
70705;SDS011;59320;52.316;10.870;2023-09-08T07:57:41;7.78;;;4.28;;
70705;SDS011;59320;52.316;10.870;2023-09-08T08:00:10;5.13;;;4.20;;
70705;SDS011;59320;52.316;10.870;2023-09-08T08:02:42;8.30;;;4.30;;
70705;SDS011;59320;52.316;10.870;2023-09-08T08:05:13;4.60;;;4.03;;
70705;SDS011;59320;52.316;10.870;2023-09-08T08:07:41;7.95;;;4.57;;
70705;SDS011;59320;52.316;10.870;2023-09-08T08:10:09;7.32;;;4.70;;
70705;SDS011;59320;52.316;10.870;2023-09-08T08:12:37;6.35;;;4.63;;
70705;SDS011;59320;52.316;10.870;2023-09-08T08:15:05;12.27;;;4.80;;
70705;SDS011;59320;52.316;10.870;2023-09-08T08:17:34;8.50;;;4.32;;
70705;SDS011;59320;52.316;10.870;2023-09-08T08:20:02;6.35;;;4.22;;
70705;SDS011;59320;52.316;10.870;2023-09-08T08:22:33;8.65;;;4.38;;
70705;SDS011;59320;52.316;10.870;2023-09-08T08:25:00;7.80;;;4.57;;
70705;SDS011;59320;52.316;10.870;2023-09-08T08:27:29;5.35;;;3.92;;
70705;SDS011;59320;52.316;10.870;2023-09-08T08:29:57;5.70;;;4.60;;
70705;SDS011;59320;52.316;10.870;2023-09-08T08:32:27;5.65;;;4.50;;
70705;SDS011;59320;52.316;10.870;2023-09-08T08:34:56;5.47;;;4.28;;
70705;SDS011;59320;52.316;10.870;2023-09-08T08:37:23;6.00;;;4.30;;
70705;SDS011;59320;52.316;10.870;2023-09-08T08:39:50;7.80;;;4.53;;
70705;SDS011;59320;52.316;10.870;2023-09-08T08:42:19;5.40;;;4.20;;
70705;SDS011;59320;52.316;10.870;2023-09-08T08:44:47;7.40;;;4.38;;
70705;SDS011;59320;52.316;10.870;2023-09-08T08:47:15;4.82;;;4.07;;
70705;SDS011;59320;52.316;10.870;2023-09-08T08:49:43;5.60;;;4.35;;
70705;SDS011;59320;52.316;10.870;2023-09-08T08:52:13;5.88;;;4.10;;
70705;SDS011;59320;52.316;10.870;2023-09-08T08:54:42;7.07;;;4.47;;
70705;SDS011;59320;52.316;10.870;2023-09-08T08:57:11;5.07;;;3.72;;
70705;SDS011;59320;52.316;10.870;2023-09-08T08:59:39;6.15;;;4.13;;
70705;SDS011;59320;52.316;10.870;2023-09-08T09:02:07;6.38;;;4.05;;
70705;SDS011;59320;52.316;10.870;2023-09-08T09:04:36;6.20;;;3.97;;
70705;SDS011;59320;52.316;10.870;2023-09-08T09:07:05;4.35;;;3.83;;
70705;SDS011;59320;52.316;10.870;2023-09-08T09:09:34;3.75;;;3.45;;
70705;SDS011;59320;52.316;10.870;2023-09-08T09:12:01;4.45;;;3.63;;
70705;SDS011;59320;52.316;10.870;2023-09-08T09:14:31;4.45;;;3.58;;
70705;SDS011;59320;52.316;10.870;2023-09-08T09:17:00;6.05;;;3.97;;
70705;SDS011;59320;52.316;10.870;2023-09-08T09:19:30;4.78;;;3.95;;
70705;SDS011;59320;52.316;10.870;2023-09-08T09:21:58;5.13;;;3.92;;
70705;SDS011;59320;52.316;10.870;2023-09-08T09:24:30;4.60;;;3.63;;
70705;SDS011;59320;52.316;10.870;2023-09-08T09:27:00;4.23;;;3.80;;
70705;SDS011;59320;52.316;10.870;2023-09-08T09:29:29;5.25;;;4.35;;
70705;SDS011;59320;52.316;10.870;2023-09-08T09:31:57;4.90;;;3.83;;
70705;SDS011;59320;52.316;10.870;2023-09-08T09:34:29;4.55;;;3.55;;
70705;SDS011;59320;52.316;10.870;2023-09-08T09:36:56;8.00;;;3.97;;
70705;SDS011;59320;52.316;10.870;2023-09-08T09:39:24;4.43;;;3.58;;
70705;SDS011;59320;52.316;10.870;2023-09-08T09:41:53;5.00;;;3.80;;
70705;SDS011;59320;52.316;10.870;2023-09-08T09:44:22;5.13;;;3.67;;
70705;SDS011;59320;52.316;10.870;2023-09-08T09:46:51;4.85;;;3.55;;
70705;SDS011;59320;52.316;10.870;2023-09-08T09:49:19;5.88;;;3.63;;
70705;SDS011;59320;52.316;10.870;2023-09-08T09:51:47;6.18;;;3.60;;
70705;SDS011;59320;52.316;10.870;2023-09-08T09:54:16;4.85;;;3.67;;
70705;SDS011;59320;52.316;10.870;2023-09-08T09:56:43;7.63;;;3.80;;
70705;SDS011;59320;52.316;10.870;2023-09-08T09:59:12;4.43;;;4.00;;
70705;SDS011;59320;52.316;10.870;2023-09-08T10:01:41;5.22;;;3.65;;
70705;SDS011;59320;52.316;10.870;2023-09-08T10:04:09;5.55;;;3.40;;
70705;SDS011;59320;52.316;10.870;2023-09-08T10:06:37;4.45;;;3.60;;
70705;SDS011;59320;52.316;10.870;2023-09-08T10:09:06;4.15;;;3.63;;
70705;SDS011;59320;52.316;10.870;2023-09-08T10:11:40;4.43;;;3.83;;
70705;SDS011;59320;52.316;10.870;2023-09-08T10:14:11;7.53;;;4.22;;
70705;SDS011;59320;52.316;10.870;2023-09-08T10:16:43;5.72;;;3.72;;
70705;SDS011;59320;52.316;10.870;2023-09-08T10:19:15;5.70;;;3.85;;
70705;SDS011;59320;52.316;10.870;2023-09-08T10:21:44;4.22;;;3.70;;
70705;SDS011;59320;52.316;10.870;2023-09-08T10:24:14;5.85;;;3.72;;
70705;SDS011;59320;52.316;10.870;2023-09-08T10:26:43;4.32;;;3.88;;
70705;SDS011;59320;52.316;10.870;2023-09-08T10:29:13;4.88;;;3.78;;
70705;SDS011;59320;52.316;10.870;2023-09-08T10:31:42;4.38;;;3.80;;
70705;SDS011;59320;52.316;10.870;2023-09-08T10:34:10;4.30;;;3.42;;
70705;SDS011;59320;52.316;10.870;2023-09-08T10:36:38;3.95;;;3.53;;
70705;SDS011;59320;52.316;10.870;2023-09-08T10:39:27;8.98;;;4.32;;
70705;SDS011;59320;52.316;10.870;2023-09-08T10:44:57;14.63;;;4.55;;
70705;SDS011;59320;52.316;10.870;2023-09-08T10:47:31;12.30;;;4.30;;
70705;SDS011;59320;52.316;10.870;2023-09-08T10:50:01;6.07;;;4.05;;
70705;SDS011;59320;52.316;10.870;2023-09-08T10:52:30;6.30;;;3.78;;
70705;SDS011;59320;52.316;10.870;2023-09-08T10:55:00;4.22;;;3.50;;
70705;SDS011;59320;52.316;10.870;2023-09-08T10:57:28;7.07;;;3.53;;
70705;SDS011;59320;52.316;10.870;2023-09-08T10:59:59;4.53;;;3.75;;
70705;SDS011;59320;52.316;10.870;2023-09-08T11:02:36;4.72;;;3.15;;
70705;SDS011;59320;52.316;10.870;2023-09-08T11:05:05;3.72;;;3.42;;
70705;SDS011;59320;52.316;10.870;2023-09-08T11:07:35;4.05;;;3.65;;
70705;SDS011;59320;52.316;10.870;2023-09-08T11:10:02;5.88;;;3.70;;
70705;SDS011;59320;52.316;10.870;2023-09-08T11:12:30;4.53;;;3.30;;
70705;SDS011;59320;52.316;10.870;2023-09-08T11:14:58;4.78;;;3.63;;
70705;SDS011;59320;52.316;10.870;2023-09-08T11:17:26;3.67;;;3.28;;
70705;SDS011;59320;52.316;10.870;2023-09-08T11:19:55;5.38;;;3.75;;
70705;SDS011;59320;52.316;10.870;2023-09-08T11:22:22;4.78;;;3.67;;
70705;SDS011;59320;52.316;10.870;2023-09-08T11:24:51;5.88;;;3.40;;
70705;SDS011;59320;52.316;10.870;2023-09-08T11:27:18;5.78;;;3.47;;
70705;SDS011;59320;52.316;10.870;2023-09-08T11:29:47;4.82;;;3.30;;
70705;SDS011;59320;52.316;10.870;2023-09-08T11:32:14;3.88;;;3.10;;
70705;SDS011;59320;52.316;10.870;2023-09-08T11:34:41;5.40;;;3.38;;
70705;SDS011;59320;52.316;10.870;2023-09-08T11:37:10;3.88;;;3.28;;
70705;SDS011;59320;52.316;10.870;2023-09-08T11:39:38;5.47;;;3.30;;
70705;SDS011;59320;52.316;10.870;2023-09-08T11:42:06;4.20;;;3.10;;
70705;SDS011;59320;52.316;10.870;2023-09-08T11:44:34;3.60;;;3.30;;
70705;SDS011;59320;52.316;10.870;2023-09-08T11:47:02;4.93;;;3.10;;
70705;SDS011;59320;52.316;10.870;2023-09-08T11:49:33;5.45;;;3.08;;
70705;SDS011;59320;52.316;10.870;2023-09-08T11:52:01;4.05;;;3.15;;
70705;SDS011;59320;52.316;10.870;2023-09-08T11:54:30;3.90;;;3.22;;
70705;SDS011;59320;52.316;10.870;2023-09-08T11:56:57;3.60;;;3.30;;
70705;SDS011;59320;52.316;10.870;2023-09-08T11:59:27;5.80;;;3.40;;
70705;SDS011;59320;52.316;10.870;2023-09-08T12:01:55;3.67;;;2.80;;
70705;SDS011;59320;52.316;10.870;2023-09-08T12:04:22;4.20;;;3.40;;
70705;SDS011;59320;52.316;10.870;2023-09-08T12:06:50;5.43;;;3.35;;
70705;SDS011;59320;52.316;10.870;2023-09-08T12:09:19;4.35;;;3.20;;
70705;SDS011;59320;52.316;10.870;2023-09-08T12:11:48;3.53;;;3.22;;
70705;SDS011;59320;52.316;10.870;2023-09-08T12:14:16;4.22;;;3.10;;
70705;SDS011;59320;52.316;10.870;2023-09-08T12:16:43;3.42;;;3.08;;
70705;SDS011;59320;52.316;10.870;2023-09-08T12:21:56;4.70;;;3.05;;
